createdAt,value
2023-05-04T00:01:38.037Z,33.87
2023-05-04T00:04:07.306Z,44.17
2023-05-04T00:06:36.514Z,37.63
2023-05-04T00:09:04.926Z,34.10
2023-05-04T00:11:33.464Z,43.93
2023-05-04T00:14:03.569Z,39.03
2023-05-04T00:16:32.265Z,34.53
2023-05-04T00:19:00.772Z,37.80
2023-05-04T00:21:29.471Z,38.00
2023-05-04T00:23:57.869Z,39.83
2023-05-04T00:26:26.718Z,37.00
2023-05-04T00:28:55.032Z,33.47
2023-05-04T00:31:25.336Z,31.90
2023-05-04T00:33:53.748Z,38.23
2023-05-04T00:36:22.218Z,39.53
2023-05-04T00:38:51.363Z,41.23
2023-05-04T00:41:21.760Z,40.60
2023-05-04T00:43:50.612Z,42.50
2023-05-04T00:46:19.883Z,38.10
2023-05-04T00:48:52.090Z,33.43
2023-05-04T00:51:22.061Z,38.27
2023-05-04T00:53:51.094Z,34.17
2023-05-04T00:56:23.785Z,34.67
2023-05-04T00:58:54.602Z,41.67
2023-05-04T01:01:23.359Z,30.23
2023-05-04T01:03:54.756Z,39.53
2023-05-04T01:06:30.706Z,53.40
2023-05-04T01:09:04.789Z,40.20
2023-05-04T01:11:38.177Z,36.97
2023-05-04T01:14:07.599Z,44.90
2023-05-04T01:16:36.244Z,43.63
2023-05-04T01:19:06.273Z,33.13
2023-05-04T01:21:36.930Z,36.27
2023-05-04T01:24:06.018Z,35.93
2023-05-04T01:26:39.951Z,39.17
2023-05-04T01:29:15.718Z,40.33
2023-05-04T01:31:46.034Z,39.10
2023-05-04T01:34:15.262Z,40.30
2023-05-04T01:36:46.513Z,36.27
2023-05-04T01:39:15.985Z,38.73
2023-05-04T01:41:44.548Z,34.70
2023-05-04T01:44:13.337Z,36.03
2023-05-04T01:46:42.111Z,30.90
2023-05-04T01:49:10.511Z,39.90
2023-05-04T01:51:39.112Z,30.77
2023-05-04T01:54:08.717Z,42.03
2023-05-04T01:56:37.323Z,36.00
2023-05-04T01:59:05.815Z,36.67
2023-05-04T02:01:34.711Z,33.27
2023-05-04T02:04:03.815Z,36.97
2023-05-04T02:06:32.486Z,39.00
2023-05-04T02:09:00.900Z,33.90
2023-05-04T02:11:31.605Z,36.90
2023-05-04T02:13:59.845Z,40.77
2023-05-04T02:16:28.365Z,34.67
2023-05-04T02:18:56.988Z,41.73
2023-05-04T02:21:25.648Z,39.60
2023-05-04T02:23:53.911Z,32.43
2023-05-04T02:26:22.567Z,36.17
2023-05-04T02:28:52.386Z,35.00
2023-05-04T02:31:21.146Z,40.37
2023-05-04T02:33:50.656Z,32.37
2023-05-04T02:36:19.323Z,38.93
2023-05-04T02:38:47.693Z,33.50
2023-05-04T02:41:16.370Z,36.17
2023-05-04T02:43:44.669Z,51.33
2023-05-04T02:46:15.180Z,43.70
2023-05-04T02:48:43.673Z,35.43
2023-05-04T02:51:12.396Z,41.20
2023-05-04T02:53:40.623Z,38.27
2023-05-04T02:56:09.213Z,40.80
2023-05-04T02:58:37.621Z,36.80
2023-05-04T03:01:06.384Z,48.33
2023-05-04T03:03:36.016Z,34.50
2023-05-04T03:06:04.655Z,39.60
2023-05-04T03:08:33.059Z,42.80
2023-05-04T03:11:01.642Z,35.80
2023-05-04T03:13:30.094Z,54.13
2023-05-04T03:15:59.224Z,44.77
2023-05-04T03:18:27.623Z,59.47
2023-05-04T03:20:57.963Z,37.23
2023-05-04T03:23:26.319Z,56.20
2023-05-04T03:25:54.845Z,39.70
2023-05-04T03:28:23.638Z,55.60
2023-05-04T03:30:54.913Z,34.37
2023-05-04T03:33:23.544Z,54.13
2023-05-04T03:35:52.672Z,39.93
2023-05-04T03:38:23.165Z,55.37
2023-05-04T03:40:52.130Z,39.23
2023-05-04T03:43:20.451Z,60.63
2023-05-04T03:45:50.644Z,42.00
2023-05-04T03:48:19.276Z,62.00
2023-05-04T03:50:47.916Z,40.13
2023-05-04T03:53:16.677Z,57.40
2023-05-04T03:55:47.126Z,45.90
2023-05-04T03:58:15.567Z,34.20
2023-05-04T04:00:44.124Z,41.57
2023-05-04T04:03:16.753Z,39.87
2023-05-04T04:05:45.869Z,46.93
2023-05-04T04:08:15.082Z,40.37
2023-05-04T04:10:43.834Z,35.03
2023-05-04T04:13:13.689Z,37.93
2023-05-04T04:15:44.893Z,27.60
2023-05-04T04:18:13.355Z,29.77
2023-05-04T04:20:42.009Z,33.03
2023-05-04T04:23:10.440Z,27.57
2023-05-04T04:25:39.080Z,33.63
2023-05-04T04:28:07.359Z,30.47
2023-05-04T04:30:37.244Z,24.50
2023-05-04T04:33:06.071Z,33.07
2023-05-04T04:35:34.805Z,43.70
2023-05-04T04:38:04.025Z,32.93
2023-05-04T04:40:32.904Z,29.63
2023-05-04T04:43:01.185Z,38.83
2023-05-04T04:45:30.492Z,30.50
2023-05-04T04:48:01.105Z,37.30
2023-05-04T04:50:30.173Z,33.67
2023-05-04T04:52:58.433Z,36.47
2023-05-04T04:55:27.378Z,37.70
2023-05-04T04:57:55.819Z,33.00
2023-05-04T05:00:24.562Z,32.10
2023-05-04T05:02:52.903Z,32.67
2023-05-04T05:05:23.279Z,31.03
2023-05-04T05:07:51.670Z,40.00
2023-05-04T05:10:21.150Z,34.97
2023-05-04T05:12:50.210Z,39.83
2023-05-04T05:15:19.038Z,31.70
2023-05-04T05:17:47.488Z,34.07
2023-05-04T05:20:16.221Z,29.50
2023-05-04T05:22:46.125Z,37.60
2023-05-04T05:25:15.112Z,33.63
2023-05-04T05:27:43.594Z,32.93
2023-05-04T05:30:12.835Z,36.23
2023-05-04T05:32:41.250Z,38.47
2023-05-04T05:35:10.697Z,44.33
2023-05-04T05:37:39.051Z,33.27
2023-05-04T05:40:10.656Z,34.67
2023-05-04T05:42:38.918Z,41.20
2023-05-04T05:45:09.140Z,33.53
2023-05-04T05:47:37.811Z,33.67
2023-05-04T05:50:08.509Z,34.57
2023-05-04T05:52:36.920Z,39.03
2023-05-04T05:55:06.034Z,42.53
2023-05-04T05:57:35.765Z,35.70
2023-05-04T06:00:06.108Z,42.07
2023-05-04T06:02:40.556Z,40.03
2023-05-04T06:05:10.543Z,42.30
2023-05-04T06:07:38.947Z,34.90
2023-05-04T06:10:08.815Z,42.90
2023-05-04T06:12:39.044Z,41.73
2023-05-04T06:15:09.311Z,40.03
2023-05-04T06:17:37.734Z,39.17
2023-05-04T06:20:07.854Z,33.07
2023-05-04T06:22:36.307Z,36.70
2023-05-04T06:25:07.943Z,41.10
2023-05-04T06:27:38.072Z,36.80
2023-05-04T06:30:08.146Z,45.47
2023-05-04T06:32:36.761Z,38.43
2023-05-04T06:35:06.145Z,36.43
2023-05-04T06:37:34.548Z,33.73
2023-05-04T06:40:04.071Z,40.17
2023-05-04T06:42:32.535Z,40.90
2023-05-04T06:45:03.181Z,30.17
2023-05-04T06:47:31.551Z,28.10
2023-05-04T06:50:00.284Z,27.80
2023-05-04T06:52:29.665Z,30.20
2023-05-04T06:54:59.987Z,31.70
2023-05-04T06:57:28.264Z,34.10
2023-05-04T06:59:56.964Z,31.77
2023-05-04T07:02:26.853Z,30.53
2023-05-04T07:04:56.552Z,34.13
2023-05-04T07:07:24.980Z,32.33
2023-05-04T07:09:53.652Z,25.80
2023-05-04T07:12:21.875Z,34.77
2023-05-04T07:14:50.535Z,25.27
2023-05-04T07:17:21.658Z,28.67
2023-05-04T07:19:52.433Z,21.70
2023-05-04T07:22:21.873Z,11.33
2023-05-04T07:24:50.393Z,23.93
2023-05-04T07:27:18.650Z,22.37
2023-05-04T07:29:47.360Z,21.73
2023-05-04T07:32:15.638Z,21.60
2023-05-04T07:34:46.625Z,27.07
2023-05-04T07:37:16.616Z,21.77
2023-05-04T07:39:45.254Z,40.40
2023-05-04T07:42:13.537Z,22.07
2023-05-04T07:44:42.290Z,19.30
2023-05-04T07:47:10.704Z,26.63
2023-05-04T07:49:39.368Z,25.90
2023-05-04T07:52:07.658Z,26.90
2023-05-04T07:54:37.604Z,23.03
2023-05-04T07:57:06.032Z,22.63
2023-05-04T07:59:34.711Z,19.87
2023-05-04T08:02:03.317Z,27.00
2023-05-04T08:04:32.020Z,26.87
2023-05-04T08:07:00.354Z,22.67
2023-05-04T08:09:28.992Z,20.10
2023-05-04T08:11:58.697Z,16.83
2023-05-04T08:14:27.763Z,18.70
2023-05-04T08:16:56.123Z,18.33
2023-05-04T08:19:24.799Z,20.87
2023-05-04T08:21:53.181Z,15.23
2023-05-04T08:24:21.761Z,23.07
2023-05-04T08:27:00.021Z,17.27
2023-05-04T08:29:37.353Z,19.30
2023-05-04T08:32:06.410Z,24.23
2023-05-04T08:34:34.979Z,17.53
2023-05-04T08:37:03.519Z,15.53
2023-05-04T08:39:32.117Z,15.90
2023-05-04T08:42:00.575Z,20.50
2023-05-04T08:44:30.614Z,17.87
2023-05-04T08:47:00.236Z,20.10
2023-05-04T08:49:29.149Z,21.83
2023-05-04T08:51:58.536Z,17.80
2023-05-04T08:54:28.181Z,14.50
2023-05-04T08:56:58.811Z,13.80
2023-05-04T08:59:30.104Z,18.43
2023-05-04T09:02:01.589Z,23.53
2023-05-04T09:04:32.041Z,21.25
2023-05-04T09:07:00.530Z,20.07
2023-05-04T09:09:31.606Z,20.77
2023-05-04T09:12:00.301Z,20.27
2023-05-04T09:14:35.516Z,19.77
2023-05-04T09:17:13.662Z,23.40
2023-05-04T09:19:44.199Z,18.40
2023-05-04T09:22:16.978Z,18.17
2023-05-04T09:24:46.479Z,16.38
2023-05-04T09:27:18.002Z,19.63
2023-05-04T09:29:54.697Z,24.02
2023-05-04T09:32:24.481Z,16.08
2023-05-04T09:34:54.607Z,17.05
2023-05-04T09:37:24.085Z,24.42
2023-05-04T09:39:55.507Z,26.40
2023-05-04T09:42:24.784Z,20.20
2023-05-04T09:45:01.773Z,21.33
2023-05-04T09:47:38.884Z,24.05
2023-05-04T09:50:20.276Z,18.13
2023-05-04T09:52:50.847Z,26.25
2023-05-04T09:55:20.919Z,18.75
2023-05-04T09:57:50.962Z,24.17
2023-05-04T10:00:20.520Z,26.27
2023-05-04T10:02:50.899Z,16.55
2023-05-04T10:05:21.784Z,20.17
2023-05-04T10:07:50.900Z,22.98
2023-05-04T10:10:20.133Z,23.90
2023-05-04T10:12:48.500Z,21.05
2023-05-04T10:15:18.249Z,21.60
2023-05-04T10:18:03.484Z,28.13
2023-05-04T10:20:44.137Z,22.20
2023-05-04T10:23:31.154Z,18.20
2023-05-04T10:26:26.797Z,23.77
2023-05-04T10:29:07.507Z,24.35
2023-05-04T10:31:40.948Z,25.33
2023-05-04T10:34:11.430Z,33.85
2023-05-04T10:36:41.704Z,15.90
2023-05-04T10:39:20.323Z,19.27
2023-05-04T10:42:00.355Z,20.55
2023-05-04T10:44:29.994Z,16.73
2023-05-04T10:47:00.121Z,23.95
2023-05-04T10:49:30.356Z,18.27
2023-05-04T10:52:20.060Z,20.08
2023-05-04T10:55:00.794Z,20.65
2023-05-04T10:57:30.521Z,22.70
2023-05-04T10:59:59.928Z,27.15
2023-05-04T11:02:32.466Z,18.70
2023-05-04T11:05:07.871Z,22.52
2023-05-04T11:07:38.241Z,18.55
2023-05-04T11:10:08.416Z,26.75
2023-05-04T11:12:38.762Z,24.33
2023-05-04T11:15:08.876Z,22.17
2023-05-04T11:17:46.362Z,24.75
2023-05-04T11:20:22.940Z,23.88
2023-05-04T11:22:51.903Z,24.58
2023-05-04T11:25:28.276Z,18.17
2023-05-04T11:27:57.332Z,24.27
2023-05-04T11:30:33.464Z,20.33
2023-05-04T11:33:02.984Z,24.58
2023-05-04T11:35:33.161Z,24.70
2023-05-04T11:38:01.877Z,24.88
2023-05-04T11:40:30.256Z,22.65
2023-05-04T11:43:00.379Z,14.07
2023-05-04T11:45:31.147Z,18.63
2023-05-04T11:48:01.070Z,20.90
2023-05-04T11:50:30.450Z,17.90
2023-05-04T11:53:08.095Z,21.95
2023-05-04T11:55:38.057Z,21.40
2023-05-04T11:58:08.290Z,16.25
2023-05-04T12:00:39.501Z,20.85
2023-05-04T12:03:09.877Z,15.38
2023-05-04T12:05:38.727Z,14.68
2023-05-04T12:08:12.403Z,12.23
2023-05-04T12:10:41.325Z,12.60
2023-05-04T12:13:17.745Z,15.00
2023-05-04T12:15:46.368Z,19.95
2023-05-04T12:18:29.621Z,14.57
2023-05-04T12:21:08.125Z,16.75
2023-05-04T12:23:38.310Z,20.15
2023-05-04T12:26:07.057Z,12.98
2023-05-04T12:28:36.487Z,18.92
2023-05-04T12:31:06.473Z,18.50
2023-05-04T12:33:36.054Z,21.30
2023-05-04T12:36:05.907Z,18.30
2023-05-04T12:38:35.247Z,17.85
2023-05-04T12:41:06.022Z,18.73
2023-05-04T12:43:34.637Z,21.05
2023-05-04T12:46:03.312Z,15.65
2023-05-04T12:48:32.994Z,15.70
2023-05-04T12:51:04.002Z,18.83
2023-05-04T12:53:33.108Z,12.68
2023-05-04T12:56:03.793Z,18.85
2023-05-04T12:58:33.773Z,18.52
2023-05-04T13:01:02.403Z,18.10
2023-05-04T13:03:31.153Z,19.10
2023-05-04T13:05:59.647Z,19.80
2023-05-04T13:08:28.219Z,15.23
2023-05-04T13:10:56.735Z,13.00
2023-05-04T13:13:28.598Z,14.88
2023-05-04T13:15:58.837Z,13.23
2023-05-04T13:18:28.792Z,13.98
2023-05-04T13:20:57.631Z,16.63
2023-05-04T13:23:26.425Z,15.63
2023-05-04T13:25:54.956Z,14.40
2023-05-04T13:28:23.795Z,18.55
2023-05-04T13:30:52.255Z,15.43
2023-05-04T13:35:57.728Z,8.82
2023-05-04T13:38:26.920Z,12.32
2023-05-04T13:40:55.176Z,14.23
2023-05-04T13:43:24.047Z,12.70
2023-05-04T13:45:52.572Z,19.23
2023-05-04T13:48:22.501Z,17.88
2023-05-04T13:50:50.827Z,14.18
2023-05-04T13:53:19.586Z,16.45
2023-05-04T13:55:48.424Z,13.18
2023-05-04T13:58:17.153Z,13.82
2023-05-04T14:00:45.367Z,16.60
2023-05-04T14:03:13.972Z,15.65
2023-05-04T14:05:43.744Z,17.20
2023-05-04T14:08:12.444Z,13.15
2023-05-04T14:10:40.949Z,20.50
2023-05-04T14:13:09.976Z,17.60
2023-05-04T14:15:38.476Z,19.60
2023-05-04T14:18:07.054Z,15.07
2023-05-04T14:20:35.631Z,20.45
2023-05-04T14:23:05.636Z,13.48
2023-05-04T14:25:34.034Z,11.63
2023-05-04T14:28:02.522Z,15.13
2023-05-04T14:30:31.679Z,16.48
2023-05-04T14:33:03.584Z,12.68
2023-05-04T14:35:31.957Z,13.70
2023-05-04T14:38:00.496Z,17.13
2023-05-04T14:40:30.762Z,13.82
2023-05-04T14:43:00.959Z,15.75
2023-05-04T14:45:29.459Z,23.73
2023-05-04T14:47:58.569Z,14.90
2023-05-04T14:50:27.080Z,15.70
2023-05-04T14:52:55.477Z,14.38
2023-05-04T14:55:24.049Z,19.60
2023-05-04T14:57:54.007Z,15.45
2023-05-04T15:00:23.045Z,19.10
2023-05-04T15:02:51.935Z,20.08
2023-05-04T15:05:20.437Z,14.13
2023-05-04T15:07:48.858Z,13.70
2023-05-04T15:10:17.384Z,15.55
2023-05-04T15:12:46.079Z,16.08
2023-05-04T15:15:15.802Z,15.18
2023-05-04T15:17:44.467Z,16.67
2023-05-04T15:20:14.372Z,17.50
2023-05-04T15:22:43.253Z,9.73
2023-05-04T15:25:11.662Z,26.40
2023-05-04T15:27:40.893Z,13.20
2023-05-04T15:30:11.384Z,14.02
2023-05-04T15:32:41.468Z,17.63
2023-05-04T15:35:09.965Z,13.25
2023-05-04T15:37:38.562Z,10.88
2023-05-04T15:40:08.691Z,17.92
2023-05-04T15:42:37.482Z,15.27
2023-05-04T15:45:07.777Z,16.13
2023-05-04T15:47:37.301Z,15.65
2023-05-04T15:50:07.987Z,19.13
2023-05-04T15:52:36.894Z,18.02
2023-05-04T15:55:20.349Z,11.80
2023-05-04T15:57:52.908Z,14.32
2023-05-04T16:00:22.066Z,16.73
2023-05-04T16:02:50.840Z,20.83
2023-05-04T16:05:21.419Z,16.35
2023-05-04T16:07:50.095Z,20.63
2023-05-04T16:10:18.646Z,17.05
2023-05-04T16:12:47.329Z,17.80
2023-05-04T16:15:15.893Z,24.08
2023-05-04T16:17:44.553Z,14.90
2023-05-04T16:20:13.286Z,16.45
2023-05-04T16:22:43.206Z,14.82
2023-05-04T16:25:11.913Z,14.60
2023-05-04T16:27:40.780Z,14.88
2023-05-04T16:30:10.486Z,15.55
2023-05-04T16:32:39.130Z,17.77
2023-05-04T16:35:08.660Z,20.05
2023-05-04T16:37:37.998Z,17.63
2023-05-04T16:40:16.019Z,17.45
2023-05-04T16:42:45.539Z,12.82
2023-05-04T16:45:14.692Z,13.10
2023-05-04T16:47:44.422Z,14.98
2023-05-04T16:50:14.302Z,28.98
2023-05-04T16:52:43.621Z,28.58
2023-05-04T16:55:12.668Z,24.83
2023-05-04T16:57:42.778Z,22.05
2023-05-04T17:00:13.291Z,21.08
2023-05-04T17:02:42.423Z,19.13
2023-05-04T17:05:11.214Z,14.15
2023-05-04T17:07:43.194Z,10.57
2023-05-04T17:10:12.357Z,16.33
2023-05-04T17:12:42.658Z,14.60
2023-05-04T17:15:12.335Z,8.07
2023-05-04T17:17:41.269Z,10.85
2023-05-04T17:20:14.691Z,16.55
2023-05-04T17:22:44.154Z,13.45
2023-05-04T17:25:13.062Z,20.98
2023-05-04T17:27:43.871Z,13.60
2023-05-04T17:30:13.452Z,8.77
2023-05-04T17:32:42.154Z,12.70
2023-05-04T17:35:20.921Z,28.17
2023-05-04T17:37:56.753Z,34.13
2023-05-04T17:40:27.157Z,36.05
2023-05-04T17:42:57.904Z,16.80
2023-05-04T17:45:26.485Z,18.75
2023-05-04T17:47:55.271Z,16.48
2023-05-04T17:50:24.494Z,12.13
2023-05-04T17:52:54.265Z,15.38
2023-05-04T17:55:24.755Z,24.92
2023-05-04T17:57:54.386Z,15.25
2023-05-04T18:00:25.140Z,22.15
2023-05-04T18:02:53.995Z,21.80
2023-05-04T18:05:22.684Z,18.60
2023-05-04T18:07:51.431Z,21.65
2023-05-04T18:10:20.313Z,18.08
2023-05-04T18:12:48.923Z,17.10
2023-05-04T18:15:18.413Z,33.97
2023-05-04T18:17:49.050Z,19.83
2023-05-04T18:20:17.425Z,19.23
2023-05-04T18:22:46.605Z,20.23
2023-05-04T18:25:15.948Z,18.02
2023-05-04T18:27:44.638Z,16.58
2023-05-04T18:30:13.256Z,17.20
2023-05-04T18:32:42.009Z,21.88
2023-05-04T18:35:11.825Z,16.27
2023-05-04T18:37:40.409Z,19.10
2023-05-04T18:40:10.203Z,13.18
2023-05-04T18:42:39.118Z,21.98
2023-05-04T18:45:10.304Z,17.25
2023-05-04T18:47:39.297Z,13.88
2023-05-04T18:50:09.883Z,18.70
2023-05-04T18:52:40.535Z,24.27
2023-05-04T18:55:09.234Z,18.77
2023-05-04T18:57:37.947Z,23.05
2023-05-04T19:00:08.715Z,20.05
2023-05-04T19:02:38.108Z,17.85
2023-05-04T19:05:07.046Z,20.10
2023-05-04T19:07:35.695Z,23.02
2023-05-04T19:10:06.880Z,17.95
2023-05-04T19:12:36.318Z,22.65
2023-05-04T19:15:05.873Z,24.52
2023-05-04T19:17:34.889Z,17.42
2023-05-04T19:20:03.347Z,44.25
2023-05-04T19:22:32.227Z,48.85
2023-05-04T19:25:00.595Z,25.33
2023-05-04T19:27:30.849Z,28.08
2023-05-04T19:29:59.414Z,21.83
2023-05-04T19:32:28.509Z,21.85
2023-05-04T19:34:57.020Z,27.23
2023-05-04T19:37:25.613Z,24.20
2023-05-04T19:39:54.698Z,20.10
2023-05-04T19:42:23.252Z,24.17
2023-05-04T19:44:53.201Z,33.63
2023-05-04T19:47:21.972Z,40.17
2023-05-04T19:49:50.581Z,29.58
2023-05-04T19:52:19.232Z,24.92
2023-05-04T19:54:48.568Z,24.63
2023-05-04T19:57:17.253Z,28.60
2023-05-04T19:59:47.087Z,24.20
2023-05-04T20:02:17.476Z,26.52
2023-05-04T20:04:46.325Z,21.67
2023-05-04T20:07:14.786Z,34.42
2023-05-04T20:09:43.151Z,27.05
2023-05-04T20:12:11.824Z,24.02
2023-05-04T20:14:41.185Z,30.48
2023-05-04T20:17:10.225Z,21.75
2023-05-04T20:19:40.813Z,23.60
2023-05-04T20:22:09.574Z,28.67
2023-05-04T20:24:37.813Z,23.52
2023-05-04T20:27:06.803Z,25.38
2023-05-04T20:29:35.753Z,31.50
2023-05-04T20:32:05.295Z,31.98
2023-05-04T20:34:33.811Z,31.58
2023-05-04T20:37:03.764Z,26.48
2023-05-04T20:39:32.450Z,30.95
2023-05-04T20:42:01.348Z,24.02
2023-05-04T20:44:29.818Z,22.13
2023-05-04T20:46:58.436Z,25.73
2023-05-04T20:49:26.733Z,23.13
2023-05-04T20:51:55.334Z,22.60
2023-05-04T20:54:25.376Z,20.55
2023-05-04T20:56:54.517Z,23.25
2023-05-04T20:59:22.825Z,20.33
2023-05-04T21:01:51.571Z,21.95
2023-05-04T21:04:19.991Z,24.10
2023-05-04T21:06:48.625Z,25.65
2023-05-04T21:09:17.039Z,22.60
2023-05-04T21:11:47.088Z,25.13
2023-05-04T21:14:15.426Z,27.95
2023-05-04T21:16:44.051Z,29.13
2023-05-04T21:19:12.240Z,23.92
2023-05-04T21:21:41.660Z,23.88
2023-05-04T21:24:13.621Z,24.08
2023-05-04T21:26:42.372Z,31.23
2023-05-04T21:29:15.525Z,32.75
2023-05-04T21:31:44.236Z,33.17
2023-05-04T21:34:12.756Z,29.02
2023-05-04T21:36:41.706Z,26.40
2023-05-04T21:39:10.093Z,23.75
2023-05-04T21:41:39.366Z,28.15
2023-05-04T21:44:07.756Z,25.52
2023-05-04T21:46:37.834Z,28.58
2023-05-04T21:49:06.150Z,25.27
2023-05-04T21:51:35.004Z,26.20
2023-05-04T21:54:03.316Z,30.48
2023-05-04T21:56:32.369Z,27.50
2023-05-04T21:59:00.778Z,31.60
2023-05-04T22:01:29.432Z,28.30
2023-05-04T22:03:59.177Z,37.65
2023-05-04T22:06:27.825Z,27.25
2023-05-04T22:08:56.151Z,25.52
2023-05-04T22:11:24.832Z,36.85
2023-05-04T22:13:53.289Z,35.17
2023-05-04T22:16:22.119Z,33.22
2023-05-04T22:18:50.620Z,34.47
2023-05-04T22:21:20.908Z,32.45
2023-05-04T22:23:49.198Z,35.80
2023-05-04T22:26:18.028Z,26.23
2023-05-04T22:28:46.272Z,29.05
2023-05-04T22:31:14.877Z,26.38
2023-05-04T22:33:43.497Z,29.55
2023-05-04T22:36:12.625Z,23.90
2023-05-04T22:38:42.470Z,25.15
2023-05-04T22:41:11.121Z,24.40
2023-05-04T22:43:39.431Z,24.77
2023-05-04T22:46:07.945Z,27.83
2023-05-04T22:48:36.179Z,24.95
2023-05-04T22:51:04.781Z,26.88
2023-05-04T22:53:33.099Z,24.77
2023-05-04T22:56:02.960Z,25.35
2023-05-04T22:58:31.293Z,29.83
2023-05-04T23:00:59.927Z,32.88
2023-05-04T23:03:28.372Z,22.25
2023-05-04T23:05:59.740Z,31.70
2023-05-04T23:08:28.086Z,30.58
2023-05-04T23:10:56.586Z,31.38
2023-05-04T23:13:26.120Z,29.25
2023-05-04T23:15:54.767Z,30.70
2023-05-04T23:18:23.114Z,26.52
2023-05-04T23:20:51.942Z,23.10
2023-05-04T23:23:20.310Z,30.98
2023-05-04T23:25:48.937Z,25.33
2023-05-04T23:28:19.301Z,29.50
2023-05-04T23:30:50.019Z,29.50
2023-05-04T23:33:18.283Z,31.50
2023-05-04T23:35:47.193Z,28.45
2023-05-04T23:38:15.645Z,35.45
2023-05-04T23:40:44.747Z,30.38
2023-05-04T23:43:13.924Z,33.78
2023-05-04T23:45:42.453Z,33.30
2023-05-04T23:48:12.008Z,33.45
2023-05-04T23:50:40.797Z,37.53
2023-05-04T23:53:09.029Z,24.17
2023-05-04T23:55:37.539Z,18.15
2023-05-04T23:58:06.234Z,22.92
